Federal Oshima — VRVY8 — position and weather

sailwx.info

Track history (hours):
 
Tides and Currents Weather Stations Pressure Air Temp Water Temp Dewpoint Dewpoint Depression Visibility Wind Speed Wind Dir Waves Ship Positions

Federal Oshima

Last reported at 2016-Jul-16 22:21 UTC. Time now 2016-Jul-23 21:11 UTC.
Position N 58°45' W 004°21'.

Length 200 m; draft 10.8 m.

Type: Cargo ship. MMSI: 477675000.

Date/timePositionNaut miles runAvg speedWind from/ knotsBaromVisibWave heightAir tempDewpointWater temp
2016-Jul-16 22:21N 58°45' W 004°21'810.0
2016-Jul-16 21:33N 58°45' W 004°05'9 9.0
2016-Jul-16 20:33N 58°45' W 003°48'8 7.5
2016-Jul-16 19:34N 58°44' W 003°34'8 7.9
2016-Jul-16 18:34N 58°44' W 003°18'7 6.7
2016-Jul-16 17:33N 58°43' W 003°05'8 8.4
2016-Jul-16 16:33N 58°37' W 002°53'1111.3
2016-Jul-16 15:33N 58°33' W 002°34'36710.1
2016-Jul-15 03:12N 57°41' E 008°55'2010.9
2016-Jul-15 01:21N 57°45' E 009°32'1111.2
2016-Jul-15 00:22N 57°48' E 009°52'3111.1
2016-Jul-14 21:34N 57°48' E 010°50'1312.8
2016-Jul-14 20:33N 57°40' E 011°09'1313.0
2016-Jul-14 19:34N 57°30' E 011°24'1313.0
2016-Jul-14 18:33N 57°18' E 011°34'1413.0
2016-Jul-14 17:29N 57°05' E 011°41'1212.4
2016-Jul-14 16:34N 56°54' E 011°48'1111.5
2016-Jul-14 15:34N 56°43' E 011°51'8511.5
2016-Jul-14 08:10N 55°22' E 011°02'710.8
2016-Jul-14 07:32N 55°15' E 011°05'1010.1
2016-Jul-14 06:34N 55°06' E 010°59'1211.8
2016-Jul-14 05:34N 54°55' E 010°52'1212.3
2016-Jul-14 04:34N 54°43' E 010°47'8 8.2
2016-Jul-14 03:34N 54°37' E 010°57'7 7.2
2016-Jul-14 02:34N 54°36' E 011°09'10 9.8
2016-Jul-14 01:34N 54°32' E 011°24'1010.4
2016-Jul-14 00:34N 54°28' E 011°41'1010.0
2016-Jul-13 23:34N 54°26' E 011°58'9 9.4
2016-Jul-13 22:33N 54°30' E 012°13'1010.4
2016-Jul-13 21:33N 54°38' E 012°22'3411.2
2016-Jul-13 18:30N 54°54' E 013°15'1011.2
2016-Jul-13 17:34N 54°57' E 013°32'1111.5
2016-Jul-13 16:34N 55°01' E 013°51'1211.5
2016-Jul-13 15:33N 55°06' E 014°09'1211.7
2016-Jul-13 14:33N 55°15' E 014°21'1211.8
2016-Jul-13 13:34N 55°25' E 014°34'1312.5
2016-Jul-13 12:33N 55°31' E 014°53'1313.0
2016-Jul-13 11:33N 55°37' E 015°13'1413.3
2016-Jul-13 10:31N 55°40' E 015°37'5412.2
2016-Jul-13 06:08N 55°54' E 017°09'3312.9
2016-Jul-13 03:32N 56°07' E 018°04'  
2016-Jul-09 02:22N 59°18' E 022°00'1314.0
2016-Jul-09 01:28N 59°26' E 022°20'1414.0
2016-Jul-09 00:28N 59°33' E 022°43'1314.2
2016-Jul-08 23:33N 59°36' E 023°08'1414.2
2016-Jul-08 22:33N 59°40' E 023°35'1414.2
2016-Jul-08 21:33N 59°44' E 024°02'1414.0
2016-Jul-08 20:32N 59°48' E 024°30'6713.5
2016-Jul-08 15:33N 60°01' E 026°41'1413.5
2016-Jul-08 14:33N 60°01' E 027°08'1413.9
2016-Jul-08 13:33N 60°08' E 027°32'1312.7
2016-Jul-08 12:33N 60°11' E 027°57'1211.6
2016-Jul-08 11:33N 60°01' E 028°09'1413.5
2016-Jul-08 10:33N 59°47' E 028°13'7 6.7
2016-Jul-08 09:33N 59°43' E 028°23'2 1.8
2016-Jul-08 08:33N 59°42' E 028°26'0 0.0
2016-Jul-08 07:13N 59°42' E 028°26'0 0.0
2016-Jul-08 06:31N 59°42' E 028°26'0 0.0
2016-Jul-08 04:31N 59°42' E 028°26'0 0.0
2016-Jul-08 03:31N 59°42' E 028°26'0 0.0
2016-Jul-08 02:31N 59°42' E 028°26'0 0.0
2016-Jul-08 01:22N 59°42' E 028°26'0 0.0
2016-Jul-08 00:25N 59°42' E 028°26'0 0.0
2016-Jul-07 23:25N 59°42' E 028°26'0 0.0
2016-Jul-07 22:25N 59°42' E 028°26'0 0.0
2016-Jul-07 21:28N 59°42' E 028°26'0 0.0
2016-Jul-07 20:28N 59°42' E 028°26'0 0.0
2016-Jul-07 19:28N 59°42' E 028°26'0 0.0
2016-Jul-07 18:31N 59°42' E 028°26'0 0.0
2016-Jul-07 17:31N 59°42' E 028°26'0 0.0
2016-Jul-07 16:31N 59°42' E 028°26'0 0.0
2016-Jul-07 15:31N 59°42' E 028°26'0 0.0
2016-Jul-07 14:19N 59°42' E 028°26'0 0.0
2016-Jul-07 13:31N 59°42' E 028°26'0 0.0
2016-Jul-07 12:31N 59°42' E 028°26'0 0.0
2016-Jul-07 11:22N 59°42' E 028°26'0 0.0
2016-Jul-07 10:25N 59°42' E 028°26'0 0.0
2016-Jul-07 09:25N 59°42' E 028°26'0 0.0
2016-Jul-07 08:25N 59°42' E 028°26'0 0.0
2016-Jul-07 07:25N 59°42' E 028°26'0 0.0
2016-Jul-07 06:28N 59°42' E 028°26'0 0.0
2016-Jul-07 05:28N 59°42' E 028°26'0 0.0
2016-Jul-07 04:31N 59°42' E 028°26'0 0.0
2016-Jul-07 03:31N 59°42' E 028°26'0 0.0
2016-Jul-07 02:31N 59°42' E 028°26'0 0.0
2016-Jul-07 01:31N 59°42' E 028°26'0 0.0
2016-Jul-07 00:31N 59°42' E 028°26'0 0.0
2016-Jul-06 23:31N 59°42' E 028°26'0 0.0
2016-Jul-06 22:22N 59°42' E 028°26'  
Track history (hours):
 
Tides and Currents Weather Stations Pressure Air Temp Water Temp Dewpoint Dewpoint Depression Visibility Wind Speed Wind Dir Waves Ship Positions

Federal Oshima

Last reported at 2016-Jul-16 22:21 UTC. Time now 2016-Jul-23 21:11 UTC.
Position N 58°45' W 004°21'.

Length 200 m; draft 10.8 m.

Type: Cargo ship. MMSI: 477675000.

Date/timePositionNaut miles runAvg speedWind from/ knotsBaromVisibWave heightAir tempDewpointWater temp
2016-Jul-16 22:21N 58°45' W 004°21'810.0
2016-Jul-16 21:33N 58°45' W 004°05'9 9.0
2016-Jul-16 20:33N 58°45' W 003°48'8 7.5
2016-Jul-16 19:34N 58°44' W 003°34'8 7.9
2016-Jul-16 18:34N 58°44' W 003°18'7 6.7
2016-Jul-16 17:33N 58°43' W 003°05'8 8.4
2016-Jul-16 16:33N 58°37' W 002°53'1111.3
2016-Jul-16 15:33N 58°33' W 002°34'36710.1
2016-Jul-15 03:12N 57°41' E 008°55'2010.9
2016-Jul-15 01:21N 57°45' E 009°32'1111.2
2016-Jul-15 00:22N 57°48' E 009°52'3111.1
2016-Jul-14 21:34N 57°48' E 010°50'1312.8
2016-Jul-14 20:33N 57°40' E 011°09'1313.0
2016-Jul-14 19:34N 57°30' E 011°24'1313.0
2016-Jul-14 18:33N 57°18' E 011°34'1413.0
2016-Jul-14 17:29N 57°05' E 011°41'1212.4
2016-Jul-14 16:34N 56°54' E 011°48'1111.5
2016-Jul-14 15:34N 56°43' E 011°51'8511.5
2016-Jul-14 08:10N 55°22' E 011°02'710.8
2016-Jul-14 07:32N 55°15' E 011°05'1010.1
2016-Jul-14 06:34N 55°06' E 010°59'1211.8
2016-Jul-14 05:34N 54°55' E 010°52'1212.3
2016-Jul-14 04:34N 54°43' E 010°47'8 8.2
2016-Jul-14 03:34N 54°37' E 010°57'7 7.2
2016-Jul-14 02:34N 54°36' E 011°09'10 9.8
2016-Jul-14 01:34N 54°32' E 011°24'1010.4
2016-Jul-14 00:34N 54°28' E 011°41'1010.0
2016-Jul-13 23:34N 54°26' E 011°58'9 9.4
2016-Jul-13 22:33N 54°30' E 012°13'1010.4
2016-Jul-13 21:33N 54°38' E 012°22'3411.2
2016-Jul-13 18:30N 54°54' E 013°15'1011.2
2016-Jul-13 17:34N 54°57' E 013°32'1111.5
2016-Jul-13 16:34N 55°01' E 013°51'1211.5
2016-Jul-13 15:33N 55°06' E 014°09'1211.7
2016-Jul-13 14:33N 55°15' E 014°21'1211.8
2016-Jul-13 13:34N 55°25' E 014°34'1312.5
2016-Jul-13 12:33N 55°31' E 014°53'1313.0
2016-Jul-13 11:33N 55°37' E 015°13'1413.3
2016-Jul-13 10:31N 55°40' E 015°37'5412.2
2016-Jul-13 06:08N 55°54' E 017°09'3312.9
2016-Jul-13 03:32N 56°07' E 018°04'  
2016-Jul-09 02:22N 59°18' E 022°00'1314.0
2016-Jul-09 01:28N 59°26' E 022°20'1414.0
2016-Jul-09 00:28N 59°33' E 022°43'1314.2
2016-Jul-08 23:33N 59°36' E 023°08'1414.2
2016-Jul-08 22:33N 59°40' E 023°35'1414.2
2016-Jul-08 21:33N 59°44' E 024°02'1414.0
2016-Jul-08 20:32N 59°48' E 024°30'6713.5
2016-Jul-08 15:33N 60°01' E 026°41'1413.5
2016-Jul-08 14:33N 60°01' E 027°08'1413.9
2016-Jul-08 13:33N 60°08' E 027°32'1312.7
2016-Jul-08 12:33N 60°11' E 027°57'1211.6
2016-Jul-08 11:33N 60°01' E 028°09'1413.5
2016-Jul-08 10:33N 59°47' E 028°13'7 6.7
2016-Jul-08 09:33N 59°43' E 028°23'2 1.8
2016-Jul-08 08:33N 59°42' E 028°26'0 0.0
2016-Jul-08 07:13N 59°42' E 028°26'0 0.0
2016-Jul-08 06:31N 59°42' E 028°26'0 0.0
2016-Jul-08 04:31N 59°42' E 028°26'0 0.0
2016-Jul-08 03:31N 59°42' E 028°26'0 0.0
2016-Jul-08 02:31N 59°42' E 028°26'0 0.0
2016-Jul-08 01:22N 59°42' E 028°26'0 0.0
2016-Jul-08 00:25N 59°42' E 028°26'0 0.0
2016-Jul-07 23:25N 59°42' E 028°26'0 0.0
2016-Jul-07 22:25N 59°42' E 028°26'0 0.0
2016-Jul-07 21:28N 59°42' E 028°26'0 0.0
2016-Jul-07 20:28N 59°42' E 028°26'0 0.0
2016-Jul-07 19:28N 59°42' E 028°26'0 0.0
2016-Jul-07 18:31N 59°42' E 028°26'0 0.0
2016-Jul-07 17:31N 59°42' E 028°26'0 0.0
2016-Jul-07 16:31N 59°42' E 028°26'0 0.0
2016-Jul-07 15:31N 59°42' E 028°26'0 0.0
2016-Jul-07 14:19N 59°42' E 028°26'0 0.0
2016-Jul-07 13:31N 59°42' E 028°26'0 0.0
2016-Jul-07 12:31N 59°42' E 028°26'0 0.0
2016-Jul-07 11:22N 59°42' E 028°26'0 0.0
2016-Jul-07 10:25N 59°42' E 028°26'0 0.0
2016-Jul-07 09:25N 59°42' E 028°26'0 0.0
2016-Jul-07 08:25N 59°42' E 028°26'0 0.0
2016-Jul-07 07:25N 59°42' E 028°26'0 0.0
2016-Jul-07 06:28N 59°42' E 028°26'0 0.0
2016-Jul-07 05:28N 59°42' E 028°26'0 0.0
2016-Jul-07 04:31N 59°42' E 028°26'0 0.0
2016-Jul-07 03:31N 59°42' E 028°26'0 0.0
2016-Jul-07 02:31N 59°42' E 028°26'0 0.0
2016-Jul-07 01:31N 59°42' E 028°26'0 0.0
2016-Jul-07 00:31N 59°42' E 028°26'0 0.0
2016-Jul-06 23:31N 59°42' E 028°26'0 0.0
2016-Jul-06 22:22N 59°42' E 028°26'  

Dump ship's entire track history